createdAt,value
2018-07-03T00:01:39.190Z,94.40
2018-07-03T00:04:42.815Z,94.50
2018-07-03T00:07:46.415Z,94.60
2018-07-03T00:10:50.114Z,94.70
2018-07-03T00:13:53.821Z,94.70
2018-07-03T00:17:03.047Z,94.70
2018-07-03T00:20:07.876Z,95.00
2018-07-03T00:23:11.579Z,95.00
2018-07-03T00:26:15.181Z,95.00
2018-07-03T00:29:18.818Z,95.20
2018-07-03T00:32:22.485Z,94.90
2018-07-03T00:35:26.143Z,94.80
2018-07-03T00:38:29.706Z,94.90
2018-07-03T00:41:33.343Z,94.70
2018-07-03T00:47:40.289Z,94.90
2018-07-03T00:50:43.915Z,94.90
2018-07-03T00:53:47.533Z,95.10
2018-07-03T00:56:51.785Z,95.10
2018-07-03T01:00:06.908Z,94.90
2018-07-03T01:03:10.513Z,95.10
2018-07-03T01:06:14.147Z,95.20
2018-07-03T01:09:17.791Z,95.10
2018-07-03T01:12:21.400Z,95.50
2018-07-03T01:15:25.812Z,95.00
2018-07-03T01:18:29.434Z,95.00
2018-07-03T01:21:33.063Z,94.90
2018-07-03T01:27:40.050Z,94.60
2018-07-03T01:30:43.838Z,94.60
2018-07-03T01:33:47.580Z,95.00
2018-07-03T01:36:51.234Z,94.80
2018-07-03T01:39:54.951Z,94.90
2018-07-03T01:42:58.546Z,94.80
2018-07-03T01:46:02.171Z,94.80
2018-07-03T01:49:05.799Z,94.90
2018-07-03T01:55:13.667Z,95.10
2018-07-03T01:58:17.518Z,95.20
2018-07-03T02:01:21.091Z,95.30
2018-07-03T02:04:24.767Z,95.80
2018-07-03T02:07:31.339Z,96.40
2018-07-03T02:10:35.122Z,96.80
2018-07-03T02:13:38.717Z,97.30
2018-07-03T02:16:42.349Z,97.70
2018-07-03T02:19:46.049Z,98.10
2018-07-03T02:22:49.779Z,98.60
2018-07-03T02:25:53.550Z,99.40
2018-07-03T02:28:57.478Z,99.50
2018-07-03T02:32:01.079Z,99.70
2018-07-03T02:35:05.054Z,99.90
2018-07-03T02:38:08.654Z,99.90
2018-07-03T02:41:12.285Z,99.90
2018-07-03T02:44:15.994Z,99.90
2018-07-03T02:47:20.256Z,99.90
2018-07-03T02:50:23.863Z,99.90
2018-07-03T02:53:27.710Z,99.90
2018-07-03T02:56:31.325Z,99.90
2018-07-03T02:59:34.986Z,99.90
2018-07-03T03:02:38.581Z,99.90
2018-07-03T03:08:45.553Z,99.90
2018-07-03T03:11:49.170Z,99.90
2018-07-03T03:14:52.760Z,99.90
2018-07-03T03:17:56.397Z,99.90
2018-07-03T03:20:59.994Z,99.40
2018-07-03T03:24:03.634Z,99.20
2018-07-03T03:27:07.230Z,98.70
2018-07-03T03:30:11.038Z,98.10
2018-07-03T03:33:14.632Z,97.30
2018-07-03T03:36:18.261Z,96.60
2018-07-03T03:39:21.863Z,95.00
2018-07-03T03:42:25.478Z,93.80
2018-07-03T03:45:29.073Z,92.80
2018-07-03T03:48:32.697Z,91.30
2018-07-03T03:54:39.877Z,87.90
2018-07-03T03:57:43.478Z,86.70
2018-07-03T04:00:47.139Z,86.20
2018-07-03T04:03:50.691Z,85.60
2018-07-03T04:06:54.330Z,84.30
2018-07-03T04:09:57.938Z,84.90
2018-07-03T04:13:01.670Z,83.90
2018-07-03T04:16:05.626Z,83.50
2018-07-03T04:19:09.288Z,82.30
2018-07-03T04:22:12.901Z,81.90
2018-07-03T04:25:16.590Z,80.90
2018-07-03T04:28:20.682Z,79.00
2018-07-03T04:31:24.295Z,77.80
2018-07-03T04:34:28.011Z,77.60
2018-07-03T04:37:31.633Z,76.80
2018-07-03T04:40:35.368Z,76.30
2018-07-03T04:43:39.117Z,76.40
2018-07-03T04:46:42.742Z,75.90
2018-07-03T04:49:46.356Z,75.30
2018-07-03T04:52:49.991Z,76.30
2018-07-03T04:55:53.729Z,76.00
2018-07-03T04:58:57.362Z,75.00
2018-07-03T05:02:00.964Z,74.20
2018-07-03T05:05:05.027Z,74.70
2018-07-03T05:08:08.662Z,74.20
2018-07-03T05:11:12.258Z,74.10
2018-07-03T05:14:15.878Z,73.80
2018-07-03T05:17:19.570Z,72.90
2018-07-03T05:20:23.141Z,73.70
2018-07-03T05:23:26.758Z,74.00
2018-07-03T05:26:30.414Z,73.20
2018-07-03T05:32:37.400Z,72.50
2018-07-03T05:35:41.071Z,72.40
2018-07-03T05:38:44.952Z,73.00
2018-07-03T05:41:48.652Z,72.80
2018-07-03T05:44:52.397Z,71.40
2018-07-03T05:47:56.094Z,71.20
2018-07-03T05:50:59.944Z,71.10
2018-07-03T05:54:03.650Z,71.10
2018-07-03T05:57:07.255Z,71.90
2018-07-03T06:03:14.478Z,70.60
2018-07-03T06:06:18.274Z,71.40
2018-07-03T06:09:22.048Z,71.10
2018-07-03T06:12:25.665Z,69.80
2018-07-03T06:15:29.290Z,71.70
2018-07-03T06:18:32.898Z,72.80
2018-07-03T06:21:36.563Z,70.50
2018-07-03T06:24:40.482Z,71.00
2018-07-03T06:30:47.841Z,69.70
2018-07-03T06:33:51.480Z,69.30
2018-07-03T06:36:55.113Z,67.00
2018-07-03T06:39:58.718Z,67.40
2018-07-03T06:43:02.531Z,65.20
2018-07-03T06:46:06.213Z,64.90
2018-07-03T06:49:09.817Z,65.70
2018-07-03T06:52:13.593Z,64.30
2018-07-03T06:55:17.214Z,63.60
2018-07-03T06:58:20.835Z,65.50
2018-07-03T07:01:24.699Z,65.90
2018-07-03T07:04:28.326Z,64.00
2018-07-03T07:10:35.372Z,62.80
2018-07-03T07:13:39.031Z,60.80
2018-07-03T07:19:46.015Z,58.60
2018-07-03T07:25:53.098Z,59.80
2018-07-03T07:32:00.132Z,60.10
2018-07-03T07:35:03.794Z,58.20
2018-07-03T07:38:07.410Z,57.70
2018-07-03T07:41:11.934Z,59.20
2018-07-03T07:44:15.824Z,59.50
2018-07-03T07:47:19.467Z,58.50
2018-07-03T07:53:26.473Z,57.90
2018-07-03T07:56:30.251Z,57.00
2018-07-03T07:59:33.863Z,56.10
2018-07-03T08:02:37.463Z,56.30
2018-07-03T08:05:41.123Z,57.10
2018-07-03T08:08:44.734Z,57.30
2018-07-03T08:11:48.387Z,56.60
2018-07-03T08:14:52.157Z,55.40
2018-07-03T08:17:55.773Z,56.10
2018-07-03T08:24:02.766Z,56.00
2018-07-03T08:27:06.422Z,55.40
2018-07-03T08:30:10.031Z,53.90
2018-07-03T08:33:14.818Z,53.00
2018-07-03T08:36:18.433Z,54.70
2018-07-03T08:39:22.063Z,55.80
2018-07-03T08:42:25.670Z,55.40
2018-07-03T08:45:29.302Z,55.30
2018-07-03T08:48:33.268Z,54.20
2018-07-03T08:51:37.447Z,53.50
2018-07-03T08:54:41.034Z,53.10
2018-07-03T08:57:44.678Z,52.70
2018-07-03T09:00:48.467Z,54.00
2018-07-03T09:03:52.027Z,52.50
2018-07-03T09:06:55.761Z,52.70
2018-07-03T09:09:59.358Z,52.90
2018-07-03T09:13:03.093Z,51.70
2018-07-03T09:16:06.758Z,51.50
2018-07-03T09:19:10.370Z,52.30
2018-07-03T09:28:20.730Z,54.90
2018-07-03T09:31:24.410Z,54.60
2018-07-03T09:34:28.037Z,53.10
2018-07-03T09:37:31.707Z,52.80
2018-07-03T09:40:35.425Z,53.80
2018-07-03T09:43:39.120Z,53.10
2018-07-03T09:46:42.739Z,52.70
2018-07-03T09:49:46.365Z,52.40
2018-07-03T09:52:49.991Z,52.40
2018-07-03T09:58:57.089Z,54.70
2018-07-03T10:02:00.692Z,55.00
2018-07-03T10:08:07.998Z,54.40
2018-07-03T10:11:12.316Z,53.90
2018-07-03T10:17:20.234Z,54.40
2018-07-03T10:20:24.191Z,54.90
2018-07-03T10:23:27.823Z,54.90
2018-07-03T10:26:31.552Z,53.50
2018-07-03T10:32:38.606Z,53.30
2018-07-03T10:35:42.242Z,53.20
2018-07-03T10:38:45.937Z,53.00
2018-07-03T10:41:49.559Z,53.10
2018-07-03T10:47:56.559Z,53.10
2018-07-03T10:51:00.218Z,53.00
2018-07-03T10:54:03.941Z,51.20
2018-07-03T10:57:07.541Z,51.70
2018-07-03T11:00:11.197Z,52.40
2018-07-03T11:03:14.789Z,52.60
2018-07-03T11:06:18.629Z,51.70
2018-07-03T11:09:22.301Z,52.10
2018-07-03T11:12:25.956Z,51.20
2018-07-03T11:15:29.559Z,50.00
2018-07-03T11:18:33.191Z,49.10
2018-07-03T11:21:36.842Z,49.20
2018-07-03T11:24:40.476Z,50.00
2018-07-03T11:27:44.199Z,49.00
2018-07-03T11:30:47.806Z,49.10
2018-07-03T11:33:51.413Z,49.60
2018-07-03T11:36:55.044Z,50.20
2018-07-03T11:39:58.984Z,50.60
2018-07-03T11:43:02.651Z,51.00
2018-07-03T11:49:10.483Z,48.50
2018-07-03T11:52:14.082Z,47.90
2018-07-03T11:55:17.724Z,47.80
2018-07-03T11:58:21.314Z,48.20
2018-07-03T12:01:25.129Z,48.20
2018-07-03T12:04:28.848Z,48.50
2018-07-03T12:07:32.475Z,48.60
2018-07-03T12:10:36.090Z,48.20
2018-07-03T12:13:39.755Z,47.70
2018-07-03T12:16:43.379Z,47.80
2018-07-03T12:19:47.003Z,47.80
2018-07-03T12:22:50.632Z,48.50
2018-07-03T12:25:54.264Z,49.80
2018-07-03T12:28:58.017Z,50.60
2018-07-03T12:32:01.574Z,50.70
2018-07-03T12:35:05.195Z,51.30
2018-07-03T12:38:08.895Z,50.10
2018-07-03T12:41:12.627Z,51.10
2018-07-03T12:44:16.203Z,51.70
2018-07-03T12:47:19.826Z,52.00
2018-07-03T12:50:23.550Z,51.80
2018-07-03T12:53:27.170Z,51.10
2018-07-03T12:56:30.798Z,51.70
2018-07-03T12:59:34.497Z,52.10
2018-07-03T13:02:38.099Z,51.40
2018-07-03T13:08:45.076Z,50.50
2018-07-03T13:11:48.695Z,50.60
2018-07-03T13:17:55.718Z,50.20
2018-07-03T13:20:59.358Z,49.90
2018-07-03T13:24:02.965Z,50.60
2018-07-03T13:27:06.598Z,51.20
2018-07-03T13:33:14.044Z,50.60
2018-07-03T13:36:17.849Z,50.60
2018-07-03T13:39:21.471Z,50.60
2018-07-03T13:42:25.167Z,50.80
2018-07-03T13:45:31.111Z,50.70
2018-07-03T13:48:34.715Z,51.10
2018-07-03T13:51:38.366Z,50.70
2018-07-03T13:54:41.987Z,51.00
2018-07-03T14:00:48.993Z,51.70
2018-07-03T14:03:52.622Z,51.70
2018-07-03T14:06:56.225Z,52.00
2018-07-03T14:10:00.079Z,51.40
2018-07-03T14:13:03.729Z,52.00
2018-07-03T14:16:07.352Z,52.20
2018-07-03T14:19:10.958Z,51.00
2018-07-03T14:22:14.574Z,50.80
2018-07-03T15:09:36.897Z,51.60
2018-07-03T15:12:40.773Z,51.60
2018-07-03T15:15:44.379Z,51.20
2018-07-03T15:18:53.448Z,52.30
2018-07-03T15:21:57.082Z,52.20
2018-07-03T15:25:00.718Z,52.50
2018-07-03T15:28:04.494Z,53.60
2018-07-03T15:31:08.140Z,52.10
2018-07-03T15:34:11.750Z,51.70
2018-07-03T15:37:15.370Z,51.90
2018-07-03T15:40:18.982Z,52.20
2018-07-03T15:43:22.607Z,51.80
2018-07-03T15:46:26.296Z,52.00
2018-07-03T15:49:29.974Z,51.30
2018-07-03T15:52:33.627Z,51.20
2018-07-03T15:55:37.249Z,51.50
2018-07-03T15:58:40.886Z,51.10
2018-07-03T16:01:44.903Z,51.40
2018-07-03T16:05:11.599Z,51.50
2018-07-03T16:08:25.514Z,51.70
2018-07-03T16:11:29.185Z,52.10
2018-07-03T16:14:32.874Z,52.50
2018-07-03T16:17:36.585Z,51.40
2018-07-03T16:20:41.665Z,51.40
2018-07-03T16:23:45.685Z,51.20
2018-07-03T16:26:49.323Z,51.60
2018-07-03T16:29:52.983Z,51.80
2018-07-03T16:32:56.633Z,51.50
2018-07-03T16:36:00.239Z,51.00
2018-07-03T16:42:09.692Z,50.90
2018-07-03T16:45:13.341Z,51.70
2018-07-03T16:48:17.058Z,51.70
2018-07-03T16:51:20.678Z,51.70
2018-07-03T16:54:24.282Z,51.40
2018-07-03T16:57:27.889Z,50.60
2018-07-03T17:00:31.608Z,50.60
2018-07-03T17:06:38.690Z,51.40
2018-07-03T17:09:42.393Z,51.00
2018-07-03T17:12:46.057Z,50.80
2018-07-03T17:15:49.675Z,51.00
2018-07-03T17:18:58.719Z,51.30
2018-07-03T17:22:02.451Z,51.40
2018-07-03T17:25:06.076Z,51.30
2018-07-03T17:28:09.695Z,51.50
2018-07-03T17:31:13.420Z,51.40
2018-07-03T17:34:17.071Z,51.80
2018-07-03T17:40:35.679Z,52.80
2018-07-03T17:44:19.543Z,52.50
2018-07-03T17:47:23.162Z,52.30
2018-07-03T17:50:26.789Z,53.20
2018-07-03T17:53:30.411Z,52.10
2018-07-03T17:56:34.144Z,52.50
2018-07-03T17:59:37.761Z,52.90
2018-07-03T18:02:41.524Z,53.00
2018-07-03T18:05:45.247Z,53.70
2018-07-03T18:08:49.640Z,53.80
2018-07-03T18:11:53.268Z,54.70
2018-07-03T18:14:56.979Z,54.40
2018-07-03T18:18:00.596Z,54.20
2018-07-03T18:21:04.224Z,55.40
2018-07-03T18:24:07.857Z,55.90
2018-07-03T18:27:11.523Z,55.90
2018-07-03T18:30:15.226Z,56.20
2018-07-03T18:33:18.885Z,56.10
2018-07-03T18:36:22.509Z,56.10
2018-07-03T18:39:26.141Z,57.20
2018-07-03T18:45:33.178Z,57.40
2018-07-03T18:48:36.918Z,57.10
2018-07-03T18:51:40.554Z,57.20
2018-07-03T18:57:47.515Z,57.70
2018-07-03T19:00:51.116Z,57.80
2018-07-03T19:03:54.755Z,57.90
2018-07-03T19:10:01.806Z,59.30
2018-07-03T19:13:05.455Z,59.60
2018-07-03T19:19:12.438Z,61.10
2018-07-03T19:22:16.128Z,60.30
2018-07-03T19:25:19.739Z,60.70
2018-07-03T19:28:23.410Z,61.00
2018-07-03T19:31:27.065Z,62.10
2018-07-03T19:34:30.677Z,62.50
2018-07-03T19:37:34.512Z,61.90
2018-07-03T19:40:38.132Z,62.20
2018-07-03T19:43:42.962Z,61.00
2018-07-03T19:46:46.631Z,60.90
2018-07-03T19:49:50.374Z,61.10
2018-07-03T19:52:53.996Z,61.30
2018-07-03T19:55:58.478Z,61.10
2018-07-03T19:59:02.093Z,61.30
2018-07-03T20:02:05.834Z,61.50
2018-07-03T20:05:09.417Z,61.90
2018-07-03T20:08:13.059Z,62.30
2018-07-03T20:11:16.706Z,62.40
2018-07-03T20:14:20.318Z,62.70
2018-07-03T20:17:24.016Z,63.00
2018-07-03T20:20:27.621Z,63.60
2018-07-03T20:23:31.260Z,63.80
2018-07-03T20:29:38.247Z,64.00
2018-07-03T20:32:42.120Z,64.40
2018-07-03T20:35:45.754Z,65.00
2018-07-03T20:38:49.475Z,64.80
2018-07-03T20:41:53.105Z,64.70
2018-07-03T20:44:57.430Z,64.90
2018-07-03T20:48:01.131Z,64.50
2018-07-03T20:51:05.057Z,64.50
2018-07-03T20:54:08.726Z,64.40
2018-07-03T20:57:12.405Z,65.10
2018-07-03T21:00:16.616Z,65.60
2018-07-03T21:03:20.261Z,65.00
2018-07-03T21:06:23.972Z,65.00
2018-07-03T21:09:27.549Z,65.10
2018-07-03T21:12:31.199Z,64.70
2018-07-03T21:15:34.803Z,64.90
2018-07-03T21:18:38.553Z,65.30
2018-07-03T21:21:42.175Z,66.10
2018-07-03T21:24:45.852Z,67.80
2018-07-03T21:27:49.453Z,68.90
2018-07-03T21:30:53.074Z,69.70
2018-07-03T21:33:56.692Z,70.50
2018-07-03T21:37:00.516Z,71.40
2018-07-03T21:40:04.125Z,71.90
2018-07-03T21:43:07.774Z,72.40
2018-07-03T21:49:14.727Z,72.90
2018-07-03T21:52:24.854Z,73.30
2018-07-03T21:55:28.477Z,73.70
2018-07-03T21:58:32.082Z,74.00
2018-07-03T22:01:35.771Z,74.30
2018-07-03T22:04:39.537Z,74.40
2018-07-03T22:07:43.192Z,74.50
2018-07-03T22:10:46.798Z,74.70
2018-07-03T22:13:50.413Z,75.20
2018-07-03T22:19:58.300Z,75.50
2018-07-03T22:23:01.890Z,75.90
2018-07-03T22:26:05.524Z,75.80
2018-07-03T22:29:09.345Z,75.80
2018-07-03T22:32:12.967Z,76.20
2018-07-03T22:38:20.126Z,76.80
2018-07-03T22:41:23.726Z,77.20
2018-07-03T22:44:27.353Z,77.60
2018-07-03T22:47:30.983Z,77.90
2018-07-03T22:53:37.991Z,78.40
2018-07-03T22:56:41.745Z,78.70
2018-07-03T22:59:45.421Z,78.80
2018-07-03T23:02:49.027Z,78.90
2018-07-03T23:05:52.662Z,79.20
2018-07-03T23:08:56.352Z,79.70
2018-07-03T23:12:00.099Z,79.90
2018-07-03T23:15:03.684Z,80.30
2018-07-03T23:18:07.314Z,80.60
2018-07-03T23:21:10.926Z,81.10
2018-07-03T23:28:21.656Z,81.60
2018-07-03T23:31:25.541Z,81.60
2018-07-03T23:34:29.158Z,81.90
2018-07-03T23:37:32.794Z,82.10
2018-07-03T23:40:36.419Z,82.40
2018-07-03T23:46:55.196Z,83.00
2018-07-03T23:50:10.299Z,83.10
2018-07-03T23:53:25.570Z,83.30
2018-07-03T23:56:41.147Z,83.70
2018-07-03T23:59:56.191Z,83.90
